Time,TemperatureF,DewpointF,PressureIn,WindDirection,WindDirectionDegrees,WindSpeedMPH,WindSpeedGustMPH,Humidity,HourlyPrecipIn,Conditions,Clouds,dailyrainin,SolarRadiationWatts/m^2,SoftwareType,DateUTC
2013-11-01 00:01:00,59.3,58.5,29.81,West,259,0.0,1.0,97,0.00,,---,0.10,0.00,VWS V14.00,2013-11-01 04:01:00,
2013-11-01 00:06:00,59.3,58.5,29.81,SSE,155,3.0,15.0,97,0.05,,---,0.11,0.00,VWS V14.00,2013-11-01 04:06:00,
2013-11-01 00:11:00,59.3,58.5,29.80,North,360,3.0,10.0,97,0.05,,---,0.11,0.00,VWS V14.00,2013-11-01 04:11:00,
2013-11-01 00:16:00,59.3,58.2,29.79,South,176,9.0,13.0,96,0.05,,---,0.00,0.00,VWS V14.00,2013-11-01 04:16:00,
2013-11-01 00:21:00,59.3,58.2,29.79,SSE,167,0.0,2.0,96,0.00,,---,0.00,0.00,VWS V14.00,2013-11-01 04:21:00,
2013-11-01 00:26:00,59.3,58.2,29.79,South,171,8.0,8.0,96,0.00,,---,0.01,0.00,VWS V14.00,2013-11-01 04:26:00,
2013-11-01 00:31:00,59.2,58.1,29.78,South,178,5.0,7.0,96,0.00,,---,0.01,0.00,VWS V14.00,2013-11-01 04:31:00,
2013-11-01 00:36:00,59.2,57.8,29.78,SE,140,6.0,17.0,95,0.00,,---,0.01,0.00,VWS V14.00,2013-11-01 04:36:00,
2013-11-01 00:41:00,59.2,57.5,29.77,SSW,198,3.0,10.0,94,0.00,,---,0.01,0.00,VWS V14.00,2013-11-01 04:41:00,
2013-11-01 00:46:00,59.2,57.5,29.77,SW,224,13.0,16.0,94,0.00,,---,0.01,0.00,VWS V14.00,2013-11-01 04:46:00,
2013-11-01 00:51:00,59.2,57.5,29.77,SE,140,5.0,9.0,94,0.00,,---,0.01,0.00,VWS V14.00,2013-11-01 04:51:00,
2013-11-01 00:56:00,59.0,57.3,29.77,SSW,197,0.0,7.0,94,0.00,,---,0.02,0.00,VWS V14.00,2013-11-01 04:56:00,
2013-11-01 01:01:00,58.9,57.2,29.76,SE,140,8.0,9.0,94,0.00,,---,0.02,0.00,VWS V14.00,2013-11-01 05:01:00,
2013-11-01 01:06:00,58.9,57.2,29.76,SW,236,4.0,5.0,94,0.00,,---,0.02,0.00,VWS V14.00,2013-11-01 05:06:00,
2013-11-01 01:11:00,58.9,57.2,29.75,SE,140,3.0,9.0,94,0.00,,---,0.02,0.00,VWS V14.00,2013-11-01 05:11:00,
2013-11-01 01:16:00,58.9,57.2,29.75,SE,140,8.0,9.0,94,0.00,,---,0.02,0.00,VWS V14.00,2013-11-01 05:16:00,
2013-11-01 01:21:00,58.9,57.5,29.74,South,171,5.0,14.0,95,0.00,,---,0.02,0.00,VWS V14.00,2013-11-01 05:21:00,
2013-11-01 01:26:00,58.9,57.5,29.73,ESE,123,5.0,15.0,95,0.00,,---,0.02,0.00,VWS V14.00,2013-11-01 05:26:00,
2013-11-01 01:31:00,59.0,57.6,29.74,SSE,163,4.0,10.0,95,0.00,,---,0.02,0.00,VWS V14.00,2013-11-01 05:31:00,
2013-11-01 01:36:00,59.0,57.6,29.74,SE,143,6.0,10.0,95,0.00,,---,0.03,0.00,VWS V14.00,2013-11-01 05:36:00,
2013-11-01 01:41:00,59.0,57.6,29.73,SSE,148,8.0,11.0,95,0.00,,---,0.03,0.00,VWS V14.00,2013-11-01 05:41:00,
2013-11-01 01:45:00,58.9,57.5,29.73,SSE,158,13.0,13.0,95,0.00,,---,0.03,0.00,VWS V14.00,2013-11-01 05:45:00,
2013-11-01 01:50:00,59.0,57.9,29.73,SE,143,7.0,7.0,96,0.00,,---,0.03,0.00,VWS V14.00,2013-11-01 05:50:00,
2013-11-01 01:55:00,59.0,57.9,29.73,SE,144,9.0,11.0,96,0.00,,---,0.03,0.00,VWS V14.00,2013-11-01 05:55:00,
2013-11-01 02:00:00,59.2,58.1,29.73,SE,133,5.0,7.0,96,0.00,,---,0.03,0.00,VWS V14.00,2013-11-01 06:00:00,
2013-11-01 02:05:00,59.2,58.1,29.73,SSE,159,11.0,13.0,96,0.00,,---,0.03,0.00,VWS V14.00,2013-11-01 06:05:00,
2013-11-01 02:10:00,59.3,58.5,29.73,South,176,2.0,6.0,97,0.00,,---,0.03,0.00,VWS V14.00,2013-11-01 06:10:00,
2013-11-01 02:15:00,59.5,58.7,29.72,SSE,162,5.0,5.0,97,0.00,,---,0.03,0.00,VWS V14.00,2013-11-01 06:15:00,
2013-11-01 02:20:00,59.6,58.8,29.72,SW,219,4.0,9.0,97,0.00,,---,0.03,0.00,VWS V14.00,2013-11-01 06:20:00,
2013-11-01 02:25:00,59.8,59.0,29.71,SSW,194,5.0,13.0,97,0.00,,---,0.03,0.00,VWS V14.00,2013-11-01 06:25:00,
2013-11-01 02:30:00,59.9,59.0,29.71,South,182,3.0,17.0,97,0.00,,---,0.03,0.00,VWS V14.00,2013-11-01 06:30:00,
2013-11-01 02:35:00,60.1,59.2,29.71,SE,130,18.0,18.0,97,0.00,,---,0.03,0.00,VWS V14.00,2013-11-01 06:35:00,
2013-11-01 02:40:00,60.2,59.3,29.71,ESE,112,9.0,14.0,97,0.00,,---,0.03,0.00,VWS V14.00,2013-11-01 06:40:00,
2013-11-01 02:45:00,60.2,59.3,29.71,SE,134,2.0,2.0,97,0.00,,---,0.03,0.00,VWS V14.00,2013-11-01 06:45:00,
2013-11-01 02:50:00,60.2,59.3,29.70,South,185,13.0,14.0,97,0.00,,---,0.03,0.00,VWS V14.00,2013-11-01 06:50:00,
2013-11-01 02:55:00,60.4,59.5,29.69,South,184,12.0,16.0,97,0.00,,---,0.03,0.00,VWS V14.00,2013-11-01 06:55:00,
2013-11-01 03:00:00,60.4,59.5,29.69,SSE,149,5.0,11.0,97,0.00,,---,0.03,0.00,VWS V14.00,2013-11-01 07:00:00,
2013-11-01 03:05:00,60.5,59.7,29.69,SE,137,6.0,6.0,97,0.00,,---,0.03,0.00,VWS V14.00,2013-11-01 07:05:00,
2013-11-01 03:10:00,60.5,59.7,29.68,South,175,6.0,15.0,97,0.00,,---,0.03,0.00,VWS V14.00,2013-11-01 07:10:00,
2013-11-01 03:14:00,60.5,59.7,29.69,SW,234,12.0,13.0,97,0.00,,---,0.03,0.00,VWS V14.00,2013-11-01 07:14:00,
2013-11-01 03:19:00,60.7,59.8,29.68,South,180,7.0,13.0,97,0.00,,---,0.03,0.00,VWS V14.00,2013-11-01 07:19:00,
2013-11-01 03:25:00,60.7,59.8,29.68,SSE,148,6.0,7.0,97,0.00,,---,0.03,0.00,VWS V14.00,2013-11-01 07:25:00,
2013-11-01 03:30:00,60.7,59.8,29.67,SSE,163,4.0,10.0,97,0.00,,---,0.03,0.00,VWS V14.00,2013-11-01 07:30:00,
2013-11-01 03:35:00,60.7,59.8,29.67,SSW,205,11.0,14.0,97,0.00,,---,0.03,0.00,VWS V14.00,2013-11-01 07:35:00,
2013-11-01 03:40:00,60.7,59.8,29.67,ESE,115,4.0,11.0,97,0.00,,---,0.03,0.00,VWS V14.00,2013-11-01 07:40:00,
2013-11-01 03:45:00,60.7,59.6,29.67,South,188,4.0,9.0,96,0.00,,---,0.03,0.00,VWS V14.00,2013-11-01 07:45:00,
2013-11-01 03:50:00,60.7,59.6,29.66,South,175,3.0,4.0,96,0.00,,---,0.03,0.00,VWS V14.00,2013-11-01 07:50:00,
2013-11-01 03:54:00,60.7,59.6,29.65,SSE,159,10.0,13.0,96,0.00,,---,0.03,0.00,VWS V14.00,2013-11-01 07:54:00,
2013-11-01 03:59:00,60.7,59.6,29.66,West,271,3.0,7.0,96,0.00,,---,0.03,0.00,VWS V14.00,2013-11-01 07:59:00,
2013-11-01 04:04:00,60.7,59.6,29.65,SSE,153,10.0,10.0,96,0.00,,---,0.03,0.00,VWS V14.00,2013-11-01 08:04:00,
2013-11-01 04:09:00,60.7,59.3,29.65,SE,143,8.0,8.0,95,0.00,,---,0.03,0.00,VWS V14.00,2013-11-01 08:09:00,
2013-11-01 04:14:00,60.7,59.3,29.65,South,170,17.0,17.0,95,0.00,,---,0.03,0.00,VWS V14.00,2013-11-01 08:14:00,
2013-11-01 04:19:00,60.7,59.3,29.65,SSE,163,6.0,9.0,95,0.00,,---,0.03,0.00,VWS V14.00,2013-11-01 08:19:00,
2013-11-01 04:24:00,60.7,59.3,29.64,SE,130,9.0,9.0,95,0.00,,---,0.03,0.00,VWS V14.00,2013-11-01 08:24:00,
2013-11-01 04:29:00,60.7,59.3,29.64,SSE,153,6.0,7.0,95,0.00,,---,0.03,0.00,VWS V14.00,2013-11-01 08:29:00,
2013-11-01 04:34:00,60.7,59.3,29.63,SE,134,13.0,13.0,95,0.00,,---,0.03,0.00,VWS V14.00,2013-11-01 08:34:00,
2013-11-01 04:39:00,60.5,59.1,29.63,SSE,155,5.0,11.0,95,0.00,,---,0.03,0.00,VWS V14.00,2013-11-01 08:39:00,
2013-11-01 04:44:00,60.5,59.1,29.63,SE,135,13.0,14.0,95,0.00,,---,0.03,0.00,VWS V14.00,2013-11-01 08:44:00,
2013-11-01 04:49:00,60.7,59.3,29.63,SSE,165,6.0,10.0,95,0.00,,---,0.03,0.00,VWS V14.00,2013-11-01 08:49:00,
2013-11-01 04:54:00,60.7,59.3,29.63,SW,232,4.0,9.0,95,0.00,,---,0.03,0.00,VWS V14.00,2013-11-01 08:54:00,
2013-11-01 04:59:00,60.7,59.3,29.62,SE,144,3.0,6.0,95,0.00,,---,0.03,0.00,VWS V14.00,2013-11-01 08:59:00,
2013-11-01 05:04:00,60.7,59.3,29.61,SSW,198,14.0,14.0,95,0.00,,---,0.03,0.00,VWS V14.00,2013-11-01 09:04:00,
2013-11-01 05:09:00,60.9,59.2,29.62,SSE,153,10.0,16.0,94,0.00,,---,0.03,0.00,VWS V14.00,2013-11-01 09:09:00,
2013-11-01 05:14:00,61.0,59.3,29.62,SW,218,6.0,6.0,94,0.00,,---,0.03,0.00,VWS V14.00,2013-11-01 09:14:00,
2013-11-01 05:19:00,61.0,59.3,29.62,SSE,148,12.0,12.0,94,0.00,,---,0.03,0.00,VWS V14.00,2013-11-01 09:19:00,
2013-11-01 05:24:00,61.2,59.5,29.61,South,181,4.0,14.0,94,0.00,,---,0.03,0.00,VWS V14.00,2013-11-01 09:24:00,
2013-11-01 05:29:00,61.2,59.2,29.62,SSE,158,9.0,16.0,93,0.00,,---,0.03,0.00,VWS V14.00,2013-11-01 09:29:00,
2013-11-01 05:34:00,61.2,59.2,29.61,SE,142,14.0,17.0,93,0.00,,---,0.03,0.00,VWS V14.00,2013-11-01 09:34:00,
2013-11-01 05:39:00,61.2,59.2,29.61,South,184,10.0,13.0,93,0.00,,---,0.03,0.00,VWS V14.00,2013-11-01 09:39:00,
2013-11-01 05:44:00,61.2,59.2,29.60,SSE,149,13.0,17.0,93,0.00,,---,0.03,0.00,VWS V14.00,2013-11-01 09:44:00,
2013-11-01 05:49:00,61.3,59.3,29.60,South,180,4.0,9.0,93,0.00,,---,0.03,0.00,VWS V14.00,2013-11-01 09:49:00,
2013-11-01 05:54:00,61.3,59.3,29.61,SSW,208,5.0,6.0,93,0.00,,---,0.03,0.00,VWS V14.00,2013-11-01 09:54:00,
2013-11-01 05:59:00,61.3,59.3,29.59,SSE,167,3.0,5.0,93,0.00,,---,0.03,0.00,VWS V14.00,2013-11-01 09:59:00,
2013-11-01 06:04:00,61.5,59.5,29.59,SSE,148,2.0,3.0,93,0.00,,---,0.03,0.00,VWS V14.00,2013-11-01 10:04:00,
2013-11-01 06:09:00,61.5,59.2,29.59,SSW,192,11.0,14.0,92,0.00,,---,0.03,0.00,VWS V14.00,2013-11-01 10:09:00,
2013-11-01 06:14:00,61.6,59.3,29.59,SE,140,6.0,18.0,92,0.00,,---,0.03,0.00,VWS V14.00,2013-11-01 10:14:00,
2013-11-01 06:19:00,61.6,59.3,29.58,South,179,11.0,12.0,92,0.00,,---,0.03,0.00,VWS V14.00,2013-11-01 10:19:00,
2013-11-01 06:24:00,62.0,59.7,29.58,SSE,157,13.0,13.0,92,0.00,,---,0.03,0.00,VWS V14.00,2013-11-01 10:24:00,
2013-11-01 06:29:00,62.1,59.5,29.57,SSE,156,7.0,8.0,91,0.00,,---,0.03,0.00,VWS V14.00,2013-11-01 10:29:00,
2013-11-01 06:34:00,62.4,59.7,29.57,South,169,6.0,6.0,91,0.00,,---,0.03,0.00,VWS V14.00,2013-11-01 10:34:00,
2013-11-01 06:39:00,62.4,59.7,29.57,SE,132,4.0,20.0,91,0.00,,---,0.03,0.00,VWS V14.00,2013-11-01 10:39:00,
2013-11-01 06:44:00,62.6,59.9,29.56,ESE,117,5.0,16.0,91,0.00,,---,0.03,0.00,VWS V14.00,2013-11-01 10:44:00,
2013-11-01 06:49:00,62.7,60.0,29.56,SE,143,11.0,14.0,91,0.00,,---,0.03,0.00,VWS V14.00,2013-11-01 10:49:00,
2013-11-01 06:54:00,62.9,60.2,29.57,SE,128,5.0,7.0,91,0.00,,---,0.03,0.00,VWS V14.00,2013-11-01 10:54:00,
2013-11-01 06:59:00,63.1,60.1,29.56,SE,144,16.0,16.0,90,0.00,,---,0.03,0.00,VWS V14.00,2013-11-01 10:59:00,
2013-11-01 07:04:00,63.1,60.1,29.57,SSE,166,15.0,15.0,90,0.00,,---,0.03,0.00,VWS V14.00,2013-11-01 11:04:00,
2013-11-01 07:09:00,63.2,60.2,29.56,WSW,248,6.0,27.0,90,0.00,,---,0.03,0.00,VWS V14.00,2013-11-01 11:09:00,
2013-11-01 07:14:00,63.2,60.2,29.56,SSE,154,10.0,14.0,90,0.00,,---,0.03,0.00,VWS V14.00,2013-11-01 11:14:00,
2013-11-01 07:19:00,63.2,60.2,29.57,South,175,4.0,23.0,90,0.00,,---,0.03,0.00,VWS V14.00,2013-11-01 11:19:00,
2013-11-01 07:24:00,63.4,60.4,29.56,South,169,9.0,9.0,90,0.00,,---,0.03,0.00,VWS V14.00,2013-11-01 11:24:00,
2013-11-01 07:29:00,63.5,60.5,29.56,SE,130,9.0,19.0,90,0.00,,---,0.03,0.00,VWS V14.00,2013-11-01 11:29:00,
2013-11-01 07:34:00,63.7,60.4,29.56,SSE,165,12.0,13.0,89,0.00,,---,0.03,0.00,VWS V14.00,2013-11-01 11:34:00,
2013-11-01 07:39:00,63.9,60.6,29.56,South,179,16.0,21.0,89,0.00,,---,0.03,0.00,VWS V14.00,2013-11-01 11:39:00,
2013-11-01 07:44:00,64.0,60.7,29.56,SE,140,10.0,17.0,89,0.00,,---,0.03,0.00,VWS V14.00,2013-11-01 11:44:00,
2013-11-01 07:49:00,64.0,60.7,29.56,South,173,6.0,17.0,89,0.00,,---,0.03,0.00,VWS V14.00,2013-11-01 11:49:00,
2013-11-01 07:54:00,64.2,60.9,29.56,SW,217,7.0,16.0,89,0.00,,---,0.03,5.00,VWS V14.00,2013-11-01 11:54:00,
2013-11-01 07:59:00,64.2,60.9,29.56,SSE,167,9.0,23.0,89,0.00,,---,0.03,5.00,VWS V14.00,2013-11-01 11:59:00,
2013-11-01 08:04:00,64.0,61.0,29.55,SW,230,10.0,13.0,90,0.00,,---,0.04,5.00,VWS V14.00,2013-11-01 12:04:00,
2013-11-01 08:09:00,63.9,60.9,29.55,SSE,166,7.0,15.0,90,0.00,,---,0.04,5.00,VWS V14.00,2013-11-01 12:09:00,
2013-11-01 08:14:00,63.7,61.0,29.56,SE,131,21.0,21.0,91,0.00,,---,0.04,11.00,VWS V14.00,2013-11-01 12:14:00,
2013-11-01 08:19:00,63.7,61.0,29.56,South,182,10.0,18.0,91,0.00,,---,0.04,9.00,VWS V14.00,2013-11-01 12:19:00,
2013-11-01 08:24:00,63.7,61.0,29.55,SW,235,7.0,29.0,91,0.00,,---,0.04,12.00,VWS V14.00,2013-11-01 12:24:00,
2013-11-01 08:29:00,63.4,61.0,29.55,South,186,11.0,28.0,92,0.00,,---,0.04,12.00,VWS V14.00,2013-11-01 12:29:00,
2013-11-01 08:34:00,63.2,60.8,29.55,SSW,202,10.0,16.0,92,0.00,,---,0.04,16.00,VWS V14.00,2013-11-01 12:34:00,
2013-11-01 08:39:00,63.1,60.7,29.56,SE,144,11.0,18.0,92,0.00,,---,0.04,18.00,VWS V14.00,2013-11-01 12:39:00,
2013-11-01 08:44:00,63.1,61.0,29.56,North,9,5.0,12.0,93,0.00,,---,0.04,18.00,VWS V14.00,2013-11-01 12:44:00,
2013-11-01 08:49:00,62.9,60.8,29.56,SE,135,7.0,15.0,93,0.00,,---,0.05,23.00,VWS V14.00,2013-11-01 12:49:00,
2013-11-01 08:54:00,62.9,60.8,29.56,ESE,108,5.0,19.0,93,0.00,,---,0.05,16.00,VWS V14.00,2013-11-01 12:54:00,
2013-11-01 08:59:00,62.9,60.8,29.56,South,191,15.0,15.0,93,0.00,,---,0.05,11.00,VWS V14.00,2013-11-01 12:59:00,
2013-11-01 09:04:00,62.9,60.8,29.55,SE,136,10.0,23.0,93,0.00,,---,0.05,14.00,VWS V14.00,2013-11-01 13:04:00,
2013-11-01 09:09:00,62.9,60.8,29.54,SSE,168,18.0,23.0,93,0.00,,---,0.05,14.00,VWS V14.00,2013-11-01 13:09:00,
2013-11-01 09:14:00,62.9,61.2,29.54,East,101,14.0,20.0,94,0.00,,---,0.05,21.00,VWS V14.00,2013-11-01 13:14:00,
2013-11-01 09:19:00,62.9,61.2,29.54,SE,142,5.0,22.0,94,0.00,,---,0.05,30.00,VWS V14.00,2013-11-01 13:19:00,
2013-11-01 09:24:00,62.9,61.2,29.55,SW,222,19.0,20.0,94,0.00,,---,0.05,26.00,VWS V14.00,2013-11-01 13:24:00,
2013-11-01 09:29:00,62.9,61.2,29.54,SSE,161,4.0,20.0,94,0.00,,---,0.05,25.00,VWS V14.00,2013-11-01 13:29:00,
2013-11-01 09:34:00,62.9,61.2,29.54,SSE,158,5.0,18.0,94,0.00,,---,0.05,23.00,VWS V14.00,2013-11-01 13:34:00,
2013-11-01 09:39:00,62.9,61.2,29.54,SSW,201,18.0,24.0,94,0.00,,---,0.05,16.00,VWS V14.00,2013-11-01 13:39:00,
2013-11-01 09:44:00,62.7,61.0,29.54,SE,144,6.0,14.0,94,0.00,,---,0.06,21.00,VWS V14.00,2013-11-01 13:44:00,
2013-11-01 09:49:00,62.7,61.0,29.53,South,180,16.0,16.0,94,0.00,,---,0.06,23.00,VWS V14.00,2013-11-01 13:49:00,
2013-11-01 09:54:00,62.6,61.2,29.53,South,173,11.0,29.0,95,0.05,,---,0.07,16.00,VWS V14.00,2013-11-01 13:54:00,
2013-11-01 09:59:00,62.6,61.2,29.53,South,174,10.0,18.0,95,0.05,,---,0.07,23.00,VWS V14.00,2013-11-01 13:59:00,
2013-11-01 10:04:00,62.6,61.2,29.52,SW,215,15.0,23.0,95,0.05,,---,0.07,28.00,VWS V14.00,2013-11-01 14:04:00,
2013-11-01 10:09:00,62.6,61.2,29.53,South,175,5.0,18.0,95,0.00,,---,0.07,16.00,VWS V14.00,2013-11-01 14:09:00,
2013-11-01 10:14:00,62.6,61.2,29.53,South,184,4.0,14.0,95,0.00,,---,0.07,25.00,VWS V14.00,2013-11-01 14:14:00,
2013-11-01 10:19:00,62.6,61.2,29.52,SE,144,14.0,19.0,95,0.00,,---,0.07,51.00,VWS V14.00,2013-11-01 14:19:00,
2013-11-01 10:24:00,62.6,61.2,29.52,West,261,7.0,16.0,95,0.00,,---,0.07,54.00,VWS V14.00,2013-11-01 14:24:00,
2013-11-01 10:29:00,62.7,61.2,29.52,South,169,3.0,7.0,95,0.00,,---,0.08,63.00,VWS V14.00,2013-11-01 14:29:00,
2013-11-01 10:34:00,62.7,61.2,29.53,SE,142,13.0,17.0,95,0.00,,---,0.08,28.00,VWS V14.00,2013-11-01 14:34:00,
2013-11-01 10:39:00,62.7,61.2,29.54,SSW,211,4.0,12.0,95,0.00,,---,0.08,25.00,VWS V14.00,2013-11-01 14:39:00,
2013-11-01 10:44:00,62.7,61.2,29.54,SSE,168,11.0,13.0,95,0.00,,---,0.08,23.00,VWS V14.00,2013-11-01 14:44:00,
2013-11-01 10:49:00,62.7,61.2,29.54,West,267,7.0,18.0,95,0.00,,---,0.08,9.00,VWS V14.00,2013-11-01 14:49:00,
2013-11-01 10:54:00,62.7,60.7,29.55,WNW,290,3.0,18.0,93,0.00,,---,0.08,9.00,VWS V14.00,2013-11-01 14:54:00,
2013-11-01 10:59:00,62.7,60.3,29.56,SW,229,10.0,10.0,92,0.31,,---,0.10,28.00,VWS V14.00,2013-11-01 14:59:00,
2013-11-01 11:04:00,62.1,59.8,29.57,NW,309,13.0,20.0,92,0.09,,---,0.10,35.00,VWS V14.00,2013-11-01 15:04:00,
2013-11-01 11:09:00,62.0,59.3,29.56,West,272,5.0,14.0,91,0.05,,---,0.10,69.00,VWS V14.00,2013-11-01 15:09:00,
2013-11-01 11:14:00,61.6,59.3,29.56,NW,316,4.0,5.0,92,0.04,,---,0.10,63.00,VWS V14.00,2013-11-01 15:14:00,
2013-11-01 11:19:00,61.5,59.2,29.56,SW,236,3.0,4.0,92,0.00,,---,0.10,63.00,VWS V14.00,2013-11-01 15:19:00,
2013-11-01 11:24:00,61.3,59.0,29.56,SW,225,5.0,6.0,92,0.00,,---,0.10,49.00,VWS V14.00,2013-11-01 15:24:00,
2013-11-01 11:29:00,61.3,59.3,29.56,SW,221,4.0,7.0,93,0.00,,---,0.10,97.00,VWS V14.00,2013-11-01 15:29:00,
2013-11-01 11:34:00,61.5,59.2,29.55,West,279,0.0,1.0,92,0.00,,---,0.10,123.00,VWS V14.00,2013-11-01 15:34:00,
2013-11-01 11:39:00,61.6,59.3,29.55,SSW,209,4.0,7.0,92,0.00,,---,0.10,62.00,VWS V14.00,2013-11-01 15:39:00,
2013-11-01 11:44:00,61.5,58.5,29.56,SW,234,1.0,7.0,90,0.00,,---,0.10,54.00,VWS V14.00,2013-11-01 15:44:00,
2013-11-01 11:49:00,61.5,58.5,29.56,SW,217,17.0,17.0,90,0.00,,---,0.10,83.00,VWS V14.00,2013-11-01 15:49:00,
2013-11-01 11:54:00,61.3,57.7,29.56,SW,233,2.0,5.0,88,0.00,,---,0.10,77.00,VWS V14.00,2013-11-01 15:54:00,
2013-11-01 11:59:00,61.2,57.6,29.56,SSW,200,1.0,4.0,88,0.00,,---,0.10,62.00,VWS V14.00,2013-11-01 15:59:00,
2013-11-01 12:04:00,61.0,57.1,29.56,SSW,208,9.0,12.0,87,0.00,,---,0.11,46.00,VWS V14.00,2013-11-01 16:04:00,
2013-11-01 12:09:00,60.7,56.8,29.56,WSW,248,2.0,6.0,87,0.00,,---,0.11,90.00,VWS V14.00,2013-11-01 16:09:00,
2013-11-01 12:14:00,60.5,56.3,29.55,SE,136,3.0,10.0,86,0.00,,---,0.11,53.00,VWS V14.00,2013-11-01 16:14:00,
2013-11-01 12:19:00,60.5,56.3,29.56,SW,221,2.0,7.0,86,0.00,,---,0.11,81.00,VWS V14.00,2013-11-01 16:19:00,
2013-11-01 12:24:00,60.5,56.6,29.53,South,174,5.0,10.0,87,0.00,,---,0.11,74.00,VWS V14.00,2013-11-01 16:24:00,
2013-11-01 12:29:00,60.4,56.5,29.52,SE,136,1.0,6.0,87,0.00,,---,0.11,98.00,VWS V14.00,2013-11-01 16:29:00,
2013-11-01 12:34:00,60.2,56.3,29.54,SSW,213,5.0,10.0,87,0.00,,---,0.11,86.00,VWS V14.00,2013-11-01 16:34:00,
2013-11-01 12:39:00,60.4,56.2,29.53,SW,223,3.0,13.0,86,0.00,,---,0.11,155.00,VWS V14.00,2013-11-01 16:39:00,
2013-11-01 12:44:00,60.4,55.9,29.51,SE,138,9.0,12.0,85,0.00,,---,0.11,107.00,VWS V14.00,2013-11-01 16:44:00,
2013-11-01 12:49:00,60.5,56.0,29.51,SSW,196,11.0,11.0,85,0.00,,---,0.11,109.00,VWS V14.00,2013-11-01 16:49:00,
2013-11-01 12:54:00,60.5,55.7,29.52,SSE,161,4.0,11.0,84,0.00,,---,0.11,116.00,VWS V14.00,2013-11-01 16:54:00,
2013-11-01 12:59:00,60.7,56.2,29.54,SSW,209,5.0,10.0,85,0.00,,---,0.11,123.00,VWS V14.00,2013-11-01 16:59:00,
2013-11-01 13:04:00,60.7,55.8,29.53,WNW,286,9.0,13.0,84,0.00,,---,0.11,135.00,VWS V14.00,2013-11-01 17:04:00,
2013-11-01 13:09:00,60.7,55.8,29.52,West,270,4.0,11.0,84,0.00,,---,0.11,146.00,VWS V14.00,2013-11-01 17:09:00,
2013-11-01 13:14:00,60.9,56.4,29.52,SSE,156,11.0,11.0,85,0.00,,---,0.11,142.00,VWS V14.00,2013-11-01 17:14:00,
2013-11-01 13:19:00,60.9,55.7,29.51,SSW,192,7.0,7.0,83,0.00,,---,0.11,174.00,VWS V14.00,2013-11-01 17:19:00,
2013-11-01 13:24:00,61.2,55.7,29.52,SSW,204,1.0,17.0,82,0.00,,---,0.11,167.00,VWS V14.00,2013-11-01 17:24:00,
2013-11-01 13:29:00,61.3,55.8,29.52,SW,232,5.0,12.0,82,0.00,,---,0.11,211.00,VWS V14.00,2013-11-01 17:29:00,
2013-11-01 13:34:00,61.6,56.1,29.51,SSW,198,13.0,18.0,82,0.00,,---,0.11,241.00,VWS V14.00,2013-11-01 17:34:00,
2013-11-01 13:39:00,62.0,56.1,29.51,WSW,256,1.0,3.0,81,0.00,,---,0.11,236.00,VWS V14.00,2013-11-01 17:39:00,
2013-11-01 13:44:00,62.3,56.1,29.51,SW,223,1.0,7.0,80,0.00,,---,0.11,234.00,VWS V14.00,2013-11-01 17:44:00,
2013-11-01 13:49:00,62.4,56.2,29.52,West,263,3.0,11.0,80,0.00,,---,0.11,174.00,VWS V14.00,2013-11-01 17:49:00,
2013-11-01 13:54:00,62.6,56.3,29.50,SW,236,2.0,12.0,80,0.00,,---,0.11,221.00,VWS V14.00,2013-11-01 17:54:00,
2013-11-01 13:59:00,62.6,56.0,29.51,SSE,167,4.0,7.0,79,0.00,,---,0.11,169.00,VWS V14.00,2013-11-01 17:59:00,
2013-11-01 14:04:00,62.7,55.8,29.51,SW,221,5.0,9.0,78,0.00,,---,0.11,185.00,VWS V14.00,2013-11-01 18:04:00,
2013-11-01 14:09:00,62.9,55.6,29.51,WSW,251,9.0,9.0,77,0.00,,---,0.11,179.00,VWS V14.00,2013-11-01 18:09:00,
2013-11-01 14:14:00,62.9,55.2,29.51,SSE,151,7.0,16.0,76,0.00,,---,0.11,237.00,VWS V14.00,2013-11-01 18:14:00,
2013-11-01 14:19:00,63.2,55.5,29.50,South,174,5.0,7.0,76,0.00,,---,0.11,167.00,VWS V14.00,2013-11-01 18:19:00,
2013-11-01 14:24:00,63.2,55.2,29.50,SSW,207,12.0,20.0,75,0.00,,---,0.11,176.00,VWS V14.00,2013-11-01 18:24:00,
2013-11-01 14:29:00,63.2,55.2,29.50,SSW,200,14.0,14.0,75,0.00,,---,0.11,213.00,VWS V14.00,2013-11-01 18:29:00,
2013-11-01 14:34:00,63.5,54.7,29.49,SW,230,6.0,15.0,73,0.00,,---,0.11,253.00,VWS V14.00,2013-11-01 18:34:00,
2013-11-01 14:39:00,63.7,54.5,29.50,SSW,203,5.0,7.0,72,0.00,,---,0.11,162.00,VWS V14.00,2013-11-01 18:39:00,
2013-11-01 14:44:00,63.9,55.1,29.50,East,101,10.0,15.0,73,0.00,,---,0.11,209.00,VWS V14.00,2013-11-01 18:44:00,
2013-11-01 14:49:00,64.0,54.8,29.49,SW,217,3.0,6.0,72,0.00,,---,0.11,178.00,VWS V14.00,2013-11-01 18:49:00,
2013-11-01 14:54:00,64.0,54.4,29.49,WSW,240,7.0,13.0,71,0.00,,---,0.11,104.00,VWS V14.00,2013-11-01 18:54:00,
2013-11-01 14:59:00,63.9,54.3,29.49,SSE,159,6.0,10.0,71,0.00,,---,0.11,253.00,VWS V14.00,2013-11-01 18:59:00,
2013-11-01 15:04:00,63.9,54.3,29.49,WSW,241,2.0,10.0,71,0.00,,---,0.11,146.00,VWS V14.00,2013-11-01 19:04:00,
2013-11-01 15:09:00,63.9,54.3,29.49,SW,226,9.0,11.0,71,0.00,,---,0.11,163.00,VWS V14.00,2013-11-01 19:09:00,
2013-11-01 15:14:00,64.2,54.6,29.49,SW,215,11.0,11.0,71,0.00,,---,0.11,278.00,VWS V14.00,2013-11-01 19:14:00,
2013-11-01 15:19:00,64.3,54.3,29.49,ESE,122,9.0,9.0,70,0.00,,---,0.11,132.00,VWS V14.00,2013-11-01 19:19:00,
2013-11-01 15:24:00,64.3,54.3,29.50,SW,216,3.0,12.0,70,0.00,,---,0.11,429.00,VWS V14.00,2013-11-01 19:24:00,
2013-11-01 15:29:00,65.0,54.2,29.49,South,184,6.0,7.0,68,0.00,,---,0.11,345.00,VWS V14.00,2013-11-01 19:29:00,
2013-11-01 15:34:00,65.6,54.4,29.49,West,264,7.0,13.0,67,0.00,,---,0.11,294.00,VWS V14.00,2013-11-01 19:34:00,
2013-11-01 15:39:00,66.0,54.3,29.50,WSW,252,7.0,16.0,66,0.00,,---,0.11,264.00,VWS V14.00,2013-11-01 19:39:00,
2013-11-01 15:44:00,65.8,54.1,29.50,West,279,7.0,12.0,66,0.00,,---,0.11,225.00,VWS V14.00,2013-11-01 19:44:00,
2013-11-01 15:49:00,65.6,54.0,29.49,SW,215,10.0,16.0,66,0.00,,---,0.11,301.00,VWS V14.00,2013-11-01 19:49:00,
2013-11-01 15:54:00,65.5,53.8,29.50,South,183,3.0,10.0,66,0.00,,---,0.11,93.00,VWS V14.00,2013-11-01 19:54:00,
2013-11-01 15:59:00,65.3,54.1,29.49,SW,230,3.0,4.0,67,0.00,,---,0.11,285.00,VWS V14.00,2013-11-01 19:59:00,
2013-11-01 16:04:00,65.6,54.0,29.49,SW,225,6.0,9.0,66,0.00,,---,0.11,44.00,VWS V14.00,2013-11-01 20:04:00,
2013-11-01 16:09:00,65.2,53.6,29.50,WSW,240,5.0,13.0,66,0.00,,---,0.11,42.00,VWS V14.00,2013-11-01 20:09:00,
2013-11-01 16:14:00,64.7,53.5,29.50,SW,232,5.0,10.0,67,0.00,,---,0.11,76.00,VWS V14.00,2013-11-01 20:14:00,
2013-11-01 16:19:00,64.7,53.9,29.50,WSW,246,6.0,6.0,68,0.00,,---,0.11,109.00,VWS V14.00,2013-11-01 20:19:00,
2013-11-01 16:24:00,64.8,53.6,29.50,WSW,245,5.0,5.0,67,0.00,,---,0.11,93.00,VWS V14.00,2013-11-01 20:24:00,
2013-11-01 16:29:00,64.7,53.9,29.51,WSW,246,0.0,6.0,68,0.00,,---,0.11,54.00,VWS V14.00,2013-11-01 20:29:00,
2013-11-01 16:34:00,64.5,53.7,29.51,WSW,252,0.0,1.0,68,0.00,,---,0.11,54.00,VWS V14.00,2013-11-01 20:34:00,
2013-11-01 16:39:00,64.3,53.9,29.51,SSE,161,0.0,4.0,69,0.00,,---,0.11,51.00,VWS V14.00,2013-11-01 20:39:00,
2013-11-01 16:44:00,64.2,53.8,29.52,South,174,2.0,4.0,69,0.00,,---,0.11,54.00,VWS V14.00,2013-11-01 20:44:00,
2013-11-01 16:49:00,64.0,53.6,29.51,SW,234,0.0,2.0,69,0.00,,---,0.11,44.00,VWS V14.00,2013-11-01 20:49:00,
2013-11-01 16:54:00,63.9,53.5,29.51,South,184,5.0,13.0,69,0.00,,---,0.11,42.00,VWS V14.00,2013-11-01 20:54:00,
2013-11-01 16:59:00,63.9,53.1,29.51,WSW,248,6.0,11.0,68,0.00,,---,0.11,37.00,VWS V14.00,2013-11-01 20:59:00,
2013-11-01 17:04:00,64.0,52.4,29.51,SSW,201,1.0,4.0,66,0.00,,---,0.11,26.00,VWS V14.00,2013-11-01 21:04:00,
2013-11-01 17:09:00,64.2,52.6,29.51,WSW,241,4.0,15.0,66,0.00,,---,0.11,40.00,VWS V14.00,2013-11-01 21:09:00,
2013-11-01 17:14:00,64.3,51.9,29.51,WSW,248,0.0,6.0,64,0.00,,---,0.11,42.00,VWS V14.00,2013-11-01 21:14:00,
2013-11-01 17:19:00,64.3,51.9,29.51,SW,222,5.0,10.0,64,0.00,,---,0.11,40.00,VWS V14.00,2013-11-01 21:19:00,
2013-11-01 17:24:00,64.3,51.9,29.50,SSE,149,0.0,5.0,64,0.00,,---,0.11,51.00,VWS V14.00,2013-11-01 21:24:00,
2013-11-01 17:29:00,64.3,51.9,29.51,WSW,248,5.0,5.0,64,0.00,,---,0.11,30.00,VWS V14.00,2013-11-01 21:29:00,
2013-11-01 17:34:00,64.3,51.0,29.52,SW,216,4.0,12.0,62,0.00,,---,0.11,12.00,VWS V14.00,2013-11-01 21:34:00,
2013-11-01 17:39:00,64.2,50.9,29.52,SSW,194,0.0,7.0,62,0.00,,---,0.11,7.00,VWS V14.00,2013-11-01 21:39:00,
2013-11-01 17:44:00,63.9,50.6,29.52,West,261,2.0,12.0,62,0.00,,---,0.11,5.00,VWS V14.00,2013-11-01 21:44:00,
2013-11-01 17:50:00,63.5,50.3,29.52,West,266,3.0,5.0,62,0.00,,---,0.11,0.00,VWS V14.00,2013-11-01 21:50:00,
2013-11-01 17:55:00,63.4,50.2,29.53,SSW,200,0.0,5.0,62,0.00,,---,0.11,0.00,VWS V14.00,2013-11-01 21:55:00,
2013-11-01 18:01:00,63.1,49.9,29.53,SSW,205,0.0,10.0,62,0.00,,---,0.11,0.00,VWS V14.00,2013-11-01 22:01:00,
2013-11-01 18:06:00,62.9,50.5,29.53,SE,134,0.0,6.0,64,0.00,,---,0.11,0.00,VWS V14.00,2013-11-01 22:06:00,
2013-11-01 18:11:00,62.7,51.2,29.54,South,188,4.0,4.0,66,0.00,,---,0.11,0.00,VWS V14.00,2013-11-01 22:11:00,
2013-11-01 18:16:00,62.4,51.3,29.54,SSE,149,4.0,5.0,67,0.00,,---,0.11,0.00,VWS V14.00,2013-11-01 22:16:00,
2013-11-01 18:21:00,62.1,52.2,29.54,SSE,167,3.0,6.0,70,0.00,,---,0.11,0.00,VWS V14.00,2013-11-01 22:21:00,
2013-11-01 18:26:00,61.8,52.7,29.55,SE,134,0.0,9.0,72,0.00,,---,0.11,0.00,VWS V14.00,2013-11-01 22:26:00,
2013-11-01 18:31:00,61.5,52.8,29.56,South,173,7.0,11.0,73,0.00,,---,0.11,0.00,VWS V14.00,2013-11-01 22:31:00,
2013-11-01 18:36:00,61.2,52.9,29.56,South,186,3.0,6.0,74,0.00,,---,0.11,0.00,VWS V14.00,2013-11-01 22:36:00,
2013-11-01 18:41:00,61.2,52.9,29.56,South,178,4.0,6.0,74,0.00,,---,0.11,0.00,VWS V14.00,2013-11-01 22:41:00,
2013-11-01 18:46:00,61.0,53.0,29.56,South,169,4.0,4.0,75,0.00,,---,0.11,0.00,VWS V14.00,2013-11-01 22:46:00,
2013-11-01 18:51:00,61.0,53.0,29.56,SSE,161,5.0,10.0,75,0.00,,---,0.11,0.00,VWS V14.00,2013-11-01 22:51:00,
2013-11-01 18:56:00,60.9,52.9,29.56,SE,142,2.0,6.0,75,0.00,,---,0.11,0.00,VWS V14.00,2013-11-01 22:56:00,
2013-11-01 19:01:00,60.7,53.1,29.57,South,176,5.0,8.0,76,0.00,,---,0.11,0.00,VWS V14.00,2013-11-01 23:01:00,
2013-11-01 19:06:00,60.5,52.9,29.57,SW,229,8.0,9.0,76,0.00,,---,0.11,0.00,VWS V14.00,2013-11-01 23:06:00,
2013-11-01 19:11:00,60.4,52.8,29.58,SE,146,7.0,8.0,76,0.00,,---,0.11,0.00,VWS V14.00,2013-11-01 23:11:00,
2013-11-01 19:16:00,60.2,52.6,29.58,SSE,148,4.0,4.0,76,0.00,,---,0.11,0.00,VWS V14.00,2013-11-01 23:16:00,
2013-11-01 19:21:00,60.1,52.5,29.58,SSE,157,8.0,8.0,76,0.00,,---,0.11,0.00,VWS V14.00,2013-11-01 23:21:00,
2013-11-01 19:26:00,59.9,52.3,29.58,SSE,160,7.0,7.0,76,0.00,,---,0.11,0.00,VWS V14.00,2013-11-01 23:26:00,
2013-11-01 19:31:00,59.6,52.4,29.59,SSE,167,1.0,5.0,77,0.00,,---,0.11,0.00,VWS V14.00,2013-11-01 23:31:00,
2013-11-01 19:36:00,59.5,52.3,29.59,SSE,161,3.0,6.0,77,0.00,,---,0.11,0.00,VWS V14.00,2013-11-01 23:36:00,
2013-11-01 19:41:00,59.3,52.5,29.59,SE,146,7.0,7.0,78,0.00,,---,0.11,0.00,VWS V14.00,2013-11-01 23:41:00,
2013-11-01 19:46:00,59.3,52.8,29.59,SSE,159,2.0,9.0,79,0.00,,---,0.11,0.00,VWS V14.00,2013-11-01 23:46:00,
2013-11-01 19:51:00,59.2,52.7,29.59,South,175,3.0,3.0,79,0.00,,---,0.11,0.00,VWS V14.00,2013-11-01 23:51:00,
2013-11-01 19:56:00,59.2,53.0,29.59,South,172,0.0,3.0,80,0.00,,---,0.11,0.00,VWS V14.00,2013-11-01 23:56:00,
2013-11-01 20:01:00,59.0,52.8,29.59,SSE,163,5.0,6.0,80,0.00,,---,0.11,0.00,VWS V14.00,2013-11-02 00:01:00,
2013-11-01 20:06:00,59.0,52.8,29.59,South,185,5.0,11.0,80,0.00,,---,0.11,0.00,VWS V14.00,2013-11-02 00:06:00,
2013-11-01 20:11:00,59.0,53.2,29.60,SSE,158,0.0,5.0,81,0.00,,---,0.11,0.00,VWS V14.00,2013-11-02 00:11:00,
2013-11-01 20:16:00,59.0,53.2,29.60,SSE,161,3.0,6.0,81,0.00,,---,0.11,0.00,VWS V14.00,2013-11-02 00:16:00,
2013-11-01 20:21:00,58.9,53.1,29.60,SSW,201,4.0,14.0,81,0.00,,---,0.11,0.00,VWS V14.00,2013-11-02 00:21:00,
2013-11-01 20:26:00,58.9,53.4,29.60,SSE,157,1.0,11.0,82,0.00,,---,0.11,0.00,VWS V14.00,2013-11-02 00:26:00,
2013-11-01 20:31:00,58.9,53.4,29.61,SSE,155,2.0,6.0,82,0.00,,---,0.11,0.00,VWS V14.00,2013-11-02 00:31:00,
2013-11-01 20:36:00,58.9,53.4,29.61,SSW,211,2.0,11.0,82,0.00,,---,0.11,0.00,VWS V14.00,2013-11-02 00:36:00,
2013-11-01 20:41:00,59.0,53.5,29.61,South,182,5.0,7.0,82,0.00,,---,0.11,0.00,VWS V14.00,2013-11-02 00:41:00,
2013-11-01 20:46:00,59.0,53.5,29.61,WSW,245,0.0,5.0,82,0.00,,---,0.11,0.00,VWS V14.00,2013-11-02 00:46:00,
2013-11-01 20:51:00,58.9,53.4,29.61,WSW,242,9.0,9.0,82,0.00,,---,0.11,0.00,VWS V14.00,2013-11-02 00:51:00,
2013-11-01 20:56:00,58.9,53.4,29.62,SW,224,0.0,5.0,82,0.00,,---,0.11,0.00,VWS V14.00,2013-11-02 00:56:00,
2013-11-01 21:01:00,58.7,53.2,29.62,South,175,0.0,1.0,82,0.00,,---,0.11,0.00,VWS V14.00,2013-11-02 01:01:00,
2013-11-01 21:06:00,58.6,53.5,29.61,SSW,202,1.0,4.0,83,0.00,,---,0.11,0.00,VWS V14.00,2013-11-02 01:06:00,
2013-11-01 21:11:00,58.6,53.5,29.61,South,182,4.0,6.0,83,0.00,,---,0.11,0.00,VWS V14.00,2013-11-02 01:11:00,
2013-11-01 21:16:00,58.6,53.5,29.62,SSW,212,2.0,4.0,83,0.00,,---,0.11,0.00,VWS V14.00,2013-11-02 01:16:00,
2013-11-01 21:21:00,58.7,53.6,29.62,South,186,4.0,7.0,83,0.00,,---,0.11,0.00,VWS V14.00,2013-11-02 01:21:00,
2013-11-01 21:26:00,58.9,53.4,29.61,South,175,6.0,6.0,82,0.00,,---,0.11,0.00,VWS V14.00,2013-11-02 01:26:00,
2013-11-01 21:31:00,58.9,53.4,29.62,SW,217,4.0,4.0,82,0.00,,---,0.11,0.00,VWS V14.00,2013-11-02 01:31:00,
2013-11-01 21:36:00,58.7,53.2,29.62,West,259,3.0,4.0,82,0.00,,---,0.11,0.00,VWS V14.00,2013-11-02 01:36:00,
2013-11-01 21:41:00,58.6,53.1,29.62,West,269,2.0,5.0,82,0.00,,---,0.11,0.00,VWS V14.00,2013-11-02 01:41:00,
2013-11-01 21:46:00,58.4,52.9,29.62,West,269,0.0,0.0,82,0.00,,---,0.11,0.00,VWS V14.00,2013-11-02 01:46:00,
2013-11-01 21:51:00,58.3,52.8,29.63,WSW,254,3.0,4.0,82,0.00,,---,0.11,0.00,VWS V14.00,2013-11-02 01:51:00,
2013-11-01 21:56:00,58.3,53.2,29.63,SSW,211,2.0,4.0,83,0.00,,---,0.11,0.00,VWS V14.00,2013-11-02 01:56:00,
2013-11-01 22:01:00,58.3,53.2,29.64,SW,215,1.0,3.0,83,0.00,,---,0.11,0.00,VWS V14.00,2013-11-02 02:01:00,
2013-11-01 22:06:00,58.1,53.0,29.64,West,278,0.0,2.0,83,0.00,,---,0.11,0.00,VWS V14.00,2013-11-02 02:06:00,
2013-11-01 22:11:00,58.1,53.0,29.65,SW,223,1.0,4.0,83,0.00,,---,0.11,0.00,VWS V14.00,2013-11-02 02:11:00,
2013-11-01 22:16:00,58.1,53.0,29.65,SW,219,2.0,6.0,83,0.00,,---,0.11,0.00,VWS V14.00,2013-11-02 02:16:00,
2013-11-01 22:21:00,58.0,52.9,29.65,SSW,211,0.0,2.0,83,0.00,,---,0.11,0.00,VWS V14.00,2013-11-02 02:21:00,
2013-11-01 22:26:00,57.8,52.7,29.65,SSW,210,0.0,2.0,83,0.00,,---,0.11,0.00,VWS V14.00,2013-11-02 02:26:00,
2013-11-01 22:31:00,57.6,52.8,29.66,SSW,211,0.0,1.0,84,0.00,,---,0.11,0.00,VWS V14.00,2013-11-02 02:31:00,
2013-11-01 22:36:00,57.5,52.7,29.65,SW,219,0.0,3.0,84,0.00,,---,0.11,0.00,VWS V14.00,2013-11-02 02:36:00,
2013-11-01 22:41:00,57.3,52.8,29.65,SW,219,0.0,1.0,85,0.00,,---,0.11,0.00,VWS V14.00,2013-11-02 02:41:00,
2013-11-01 22:46:00,57.2,52.7,29.65,SW,219,0.0,0.0,85,0.00,,---,0.11,0.00,VWS V14.00,2013-11-02 02:46:00,
2013-11-01 22:51:00,56.9,52.4,29.66,SW,219,0.0,0.0,85,0.00,,---,0.11,0.00,VWS V14.00,2013-11-02 02:51:00,
2013-11-01 22:56:00,56.6,52.2,29.66,SW,219,1.0,1.0,85,0.00,,---,0.11,0.00,VWS V14.00,2013-11-02 02:56:00,
2013-11-01 23:01:00,56.3,52.2,29.67,South,189,3.0,3.0,86,0.00,,---,0.11,0.00,VWS V14.00,2013-11-02 03:01:00,
2013-11-01 23:06:00,56.0,52.2,29.67,South,189,0.0,1.0,87,0.00,,---,0.11,0.00,VWS V14.00,2013-11-02 03:06:00,
2013-11-01 23:11:00,55.9,52.4,29.67,South,186,0.0,3.0,88,0.00,,---,0.11,0.00,VWS V14.00,2013-11-02 03:11:00,
2013-11-01 23:16:00,55.7,52.2,29.67,South,181,0.0,1.0,88,0.00,,---,0.11,0.00,VWS V14.00,2013-11-02 03:16:00,
2013-11-01 23:21:00,55.4,51.9,29.67,South,181,0.0,0.0,88,0.00,,---,0.11,0.00,VWS V14.00,2013-11-02 03:21:00,
2013-11-01 23:26:00,55.1,51.9,29.67,South,181,0.0,0.0,89,0.00,,---,0.11,0.00,VWS V14.00,2013-11-02 03:26:00,
2013-11-01 23:31:00,55.0,51.8,29.67,South,181,1.0,2.0,89,0.00,,---,0.11,0.00,VWS V14.00,2013-11-02 03:31:00,
2013-11-01 23:36:00,55.0,52.1,29.67,South,179,0.0,1.0,90,0.00,,---,0.11,0.00,VWS V14.00,2013-11-02 03:36:00,
2013-11-01 23:41:00,55.0,52.4,29.67,South,179,0.0,1.0,91,0.00,,---,0.11,0.00,VWS V14.00,2013-11-02 03:41:00,
2013-11-01 23:46:00,54.8,52.2,29.67,South,179,3.0,3.0,91,0.00,,---,0.11,0.00,VWS V14.00,2013-11-02 03:46:00,
2013-11-01 23:51:00,54.8,52.2,29.67,South,177,0.0,1.0,91,0.00,,---,0.11,0.00,VWS V14.00,2013-11-02 03:51:00,
2013-11-01 23:56:00,54.8,52.2,29.67,SSE,152,5.0,6.0,91,0.00,,---,0.11,0.00,VWS V14.00,2013-11-02 03:56:00,